createdAt,value
2018-08-23T00:01:28.235Z,61.40
2018-08-23T00:03:59.165Z,56.50
2018-08-23T00:06:27.818Z,60.83
2018-08-23T00:08:58.416Z,58.23
2018-08-23T00:11:59.897Z,51.70
2018-08-23T00:14:28.631Z,60.60
2018-08-23T00:16:57.267Z,60.40
2018-08-23T00:19:25.992Z,61.57
2018-08-23T00:21:54.648Z,55.57
2018-08-23T00:24:24.434Z,59.87
2018-08-23T00:26:54.590Z,69.67
2018-08-23T00:29:38.874Z,56.27
2018-08-23T00:32:08.590Z,59.13
2018-08-23T00:34:38.539Z,59.80
2018-08-23T00:37:07.875Z,56.03
2018-08-23T00:39:36.534Z,55.80
2018-08-23T00:42:06.675Z,59.73
2018-08-23T00:44:51.777Z,63.93
2018-08-23T00:47:20.821Z,58.63
2018-08-23T00:49:49.498Z,60.93
2018-08-23T00:52:20.784Z,59.17
2018-08-23T00:54:49.725Z,59.20
2018-08-23T00:57:18.516Z,56.77
2018-08-23T00:59:51.369Z,57.57
2018-08-23T01:02:20.750Z,56.70
2018-08-23T01:04:49.462Z,58.73
2018-08-23T01:07:23.513Z,58.27
2018-08-23T01:09:52.247Z,52.30
2018-08-23T01:12:21.124Z,55.90
2018-08-23T01:14:51.928Z,58.17
2018-08-23T01:17:20.616Z,57.43
2018-08-23T01:19:59.287Z,61.37
2018-08-23T01:22:27.877Z,60.83
2018-08-23T01:24:57.744Z,58.80
2018-08-23T01:27:31.726Z,57.67
2018-08-23T01:30:00.445Z,54.70
2018-08-23T01:32:33.176Z,66.00
2018-08-23T01:35:01.911Z,56.37
2018-08-23T01:37:38.659Z,61.53
2018-08-23T01:40:09.302Z,52.60
2018-08-23T01:42:39.226Z,66.47
2018-08-23T01:45:09.219Z,59.17
2018-08-23T01:47:43.612Z,60.57
2018-08-23T01:50:13.224Z,66.07
2018-08-23T01:52:47.003Z,59.67
2018-08-23T01:55:16.560Z,66.70
2018-08-23T01:57:45.674Z,55.77
2018-08-23T02:00:18.642Z,59.27
2018-08-23T02:02:47.395Z,62.50
2018-08-23T02:05:16.187Z,58.30
2018-08-23T02:07:45.010Z,61.17
2018-08-23T02:10:13.752Z,61.20
2018-08-23T02:12:47.761Z,66.47
2018-08-23T02:15:16.459Z,63.03
2018-08-23T02:17:50.628Z,61.30
2018-08-23T02:20:20.007Z,56.97
2018-08-23T02:22:48.593Z,60.37
2018-08-23T02:25:17.414Z,60.73
2018-08-23T02:28:10.983Z,56.63
2018-08-23T02:30:49.967Z,57.03
2018-08-23T02:33:18.837Z,61.13
2018-08-23T02:36:05.297Z,66.00
2018-08-23T02:38:34.769Z,55.53
2018-08-23T02:41:03.379Z,69.20
2018-08-23T02:43:32.105Z,67.50
2018-08-23T02:46:03.007Z,59.43
2018-08-23T02:48:35.211Z,68.73
2018-08-23T02:51:03.824Z,63.77
2018-08-23T02:53:51.548Z,62.23
2018-08-23T02:56:21.425Z,60.50
2018-08-23T02:58:55.056Z,61.00
2018-08-23T03:01:24.711Z,61.77
2018-08-23T03:04:05.747Z,57.47
2018-08-23T03:06:55.018Z,64.90
2018-08-23T03:09:26.986Z,59.50
2018-08-23T03:11:59.939Z,60.53
2018-08-23T03:14:29.178Z,60.97
2018-08-23T03:17:34.383Z,59.97
2018-08-23T03:20:09.353Z,67.83
2018-08-23T03:22:38.483Z,66.00
2018-08-23T03:25:10.682Z,58.27
2018-08-23T03:27:39.511Z,59.03
2018-08-23T03:30:10.225Z,63.90
2018-08-23T03:32:38.870Z,64.97
2018-08-23T03:35:07.728Z,56.73
2018-08-23T03:37:36.485Z,62.03
2018-08-23T03:40:05.486Z,61.00
2018-08-23T03:42:34.305Z,68.23
2018-08-23T03:45:03.383Z,69.00
2018-08-23T03:47:38.398Z,72.10
2018-08-23T03:50:08.318Z,65.40
2018-08-23T03:52:46.202Z,68.70
2018-08-23T03:55:18.110Z,74.27
2018-08-23T03:57:53.270Z,68.40
2018-08-23T04:00:29.205Z,62.90
2018-08-23T04:02:59.845Z,63.80
2018-08-23T04:05:28.753Z,79.40
2018-08-23T04:07:57.457Z,63.10
2018-08-23T04:10:26.178Z,69.80
2018-08-23T04:12:54.852Z,71.07
2018-08-23T04:15:32.413Z,71.83
2018-08-23T04:18:07.666Z,68.83
2018-08-23T04:20:36.937Z,76.23
2018-08-23T04:23:05.685Z,82.03
2018-08-23T04:25:34.568Z,70.93
2018-08-23T04:28:03.221Z,68.50
2018-08-23T04:30:33.218Z,68.33
2018-08-23T04:33:02.059Z,63.97
2018-08-23T04:35:30.764Z,69.93
2018-08-23T04:37:59.558Z,69.67
2018-08-23T04:40:28.323Z,73.33
2018-08-23T04:42:57.231Z,67.87
2018-08-23T04:45:31.150Z,68.57
2018-08-23T04:48:07.822Z,79.50
2018-08-23T04:50:37.517Z,73.83
2018-08-23T04:53:06.158Z,77.90
2018-08-23T04:55:35.823Z,63.47
2018-08-23T04:58:05.215Z,71.90
2018-08-23T05:00:34.110Z,67.60
2018-08-23T05:03:02.778Z,67.27
2018-08-23T05:05:31.740Z,74.90
2018-08-23T05:08:00.719Z,71.13
2018-08-23T05:10:29.365Z,68.40
2018-08-23T05:12:58.290Z,72.50
2018-08-23T05:15:27.016Z,62.97
2018-08-23T05:17:55.905Z,68.83
2018-08-23T05:20:24.731Z,67.73
2018-08-23T05:22:58.681Z,68.40
2018-08-23T05:25:27.409Z,62.50
2018-08-23T05:28:09.815Z,68.40
2018-08-23T05:30:38.617Z,73.07
2018-08-23T05:33:14.382Z,72.63
2018-08-23T05:35:43.154Z,73.87
2018-08-23T05:38:12.483Z,73.73
2018-08-23T05:40:46.419Z,68.27
2018-08-23T05:43:15.678Z,62.17
2018-08-23T05:45:49.601Z,74.50
2018-08-23T05:48:32.249Z,64.37
2018-08-23T05:51:02.575Z,65.17
2018-08-23T05:53:31.245Z,59.97
2018-08-23T05:56:00.921Z,62.83
2018-08-23T05:58:30.838Z,66.80
2018-08-23T06:00:59.546Z,66.27
2018-08-23T06:03:28.190Z,67.30
2018-08-23T06:05:57.275Z,69.43
2018-08-23T06:08:26.011Z,66.30
2018-08-23T06:10:58.326Z,67.00
2018-08-23T06:13:27.051Z,66.63
2018-08-23T06:15:56.770Z,67.03
2018-08-23T06:18:26.458Z,55.53
2018-08-23T06:20:55.209Z,53.60
2018-08-23T06:23:33.852Z,62.80
2018-08-23T06:26:02.627Z,60.70
2018-08-23T06:28:31.301Z,73.57
2018-08-23T06:31:01.766Z,66.47
2018-08-23T06:33:38.263Z,55.27
2018-08-23T06:36:09.500Z,59.67
2018-08-23T06:38:39.554Z,89.27
2018-08-23T06:41:08.795Z,65.37
2018-08-23T06:43:37.531Z,54.20
2018-08-23T06:46:06.206Z,56.77
2018-08-23T06:48:34.979Z,56.53
2018-08-23T06:51:05.628Z,56.93
2018-08-23T06:53:45.086Z,63.87
2018-08-23T06:56:14.326Z,64.53
2018-08-23T06:58:43.283Z,59.30
2018-08-23T07:01:27.266Z,57.37
2018-08-23T07:04:01.108Z,57.47
2018-08-23T07:06:31.556Z,56.83
2018-08-23T07:09:00.207Z,57.97
2018-08-23T07:11:29.230Z,63.37
2018-08-23T07:14:03.101Z,62.60
2018-08-23T07:16:31.844Z,62.70
2018-08-23T07:19:03.017Z,59.30
2018-08-23T07:21:31.843Z,58.50
2018-08-23T07:24:00.711Z,66.63
2018-08-23T07:26:29.622Z,60.60
2018-08-23T07:28:58.264Z,66.93
2018-08-23T07:31:27.121Z,62.90
2018-08-23T07:33:58.448Z,62.53
2018-08-23T07:36:30.255Z,63.53
2018-08-23T07:38:59.087Z,59.40
2018-08-23T07:41:28.005Z,61.60
2018-08-23T07:43:56.765Z,59.77
2018-08-23T07:46:25.496Z,52.07
2018-08-23T07:48:54.354Z,53.63
2018-08-23T07:51:25.475Z,65.30
2018-08-23T07:53:57.450Z,50.90
2018-08-23T07:56:27.439Z,49.73
2018-08-23T07:58:57.329Z,48.57
2018-08-23T08:01:32.000Z,39.07
2018-08-23T08:04:01.244Z,40.07
2018-08-23T08:06:30.160Z,42.13
2018-08-23T08:09:00.409Z,35.50
2018-08-23T08:11:37.122Z,34.20
2018-08-23T08:14:14.852Z,39.97
2018-08-23T08:16:43.620Z,32.93
2018-08-23T08:19:12.206Z,36.40
2018-08-23T08:21:40.893Z,35.53
2018-08-23T08:24:09.583Z,37.60
2018-08-23T08:26:38.176Z,35.30
2018-08-23T08:29:06.967Z,37.30
2018-08-23T08:31:35.567Z,34.00
2018-08-23T08:34:04.193Z,35.17
2018-08-23T08:36:33.815Z,36.63
2018-08-23T08:39:03.683Z,35.83
2018-08-23T08:41:36.565Z,36.07
2018-08-23T08:44:05.283Z,40.53
2018-08-23T08:46:34.068Z,44.30
2018-08-23T08:49:02.888Z,38.77
2018-08-23T08:51:32.960Z,29.73
2018-08-23T08:54:03.081Z,36.53
2018-08-23T08:56:38.338Z,30.00
2018-08-23T08:59:06.936Z,27.20
2018-08-23T09:01:35.661Z,32.30
2018-08-23T09:04:04.387Z,23.97
2018-08-23T09:06:45.645Z,24.43
2018-08-23T09:09:28.239Z,30.23
2018-08-23T09:11:59.097Z,29.63
2018-08-23T09:14:27.898Z,30.40
2018-08-23T09:16:56.566Z,26.73
2018-08-23T09:19:36.375Z,29.33
2018-08-23T09:22:10.275Z,26.50
2018-08-23T09:24:40.218Z,22.67
2018-08-23T09:27:16.555Z,28.07
2018-08-23T09:29:45.364Z,19.30
2018-08-23T09:32:31.431Z,21.13
2018-08-23T09:35:04.664Z,22.40
2018-08-23T09:37:36.364Z,17.10
2018-08-23T09:40:05.621Z,15.87
2018-08-23T09:42:35.443Z,19.80
2018-08-23T09:45:15.499Z,19.77
2018-08-23T09:47:44.114Z,19.13
2018-08-23T09:50:12.854Z,15.93
2018-08-23T09:52:47.258Z,20.10
2018-08-23T09:55:17.908Z,17.20
2018-08-23T09:57:47.196Z,12.90
2018-08-23T10:00:21.051Z,15.37
2018-08-23T10:02:55.125Z,12.13
2018-08-23T10:05:29.055Z,15.70
2018-08-23T10:08:03.065Z,19.47
2018-08-23T10:10:37.155Z,18.63
2018-08-23T10:13:11.364Z,22.40
2018-08-23T10:15:48.197Z,16.13
2018-08-23T10:18:25.923Z,18.67
2018-08-23T10:20:59.289Z,17.77
2018-08-23T10:23:27.954Z,17.27
2018-08-23T10:25:57.855Z,15.83
2018-08-23T10:28:32.566Z,16.80
2018-08-23T10:31:01.333Z,16.70
2018-08-23T10:33:29.997Z,15.73
2018-08-23T10:35:58.610Z,18.00
2018-08-23T10:38:28.521Z,21.37
2018-08-23T10:41:02.432Z,17.50
2018-08-23T10:43:36.359Z,25.53
2018-08-23T10:46:05.707Z,17.90
2018-08-23T10:48:34.508Z,17.40
2018-08-23T10:51:04.200Z,20.57
2018-08-23T10:53:32.998Z,14.77
2018-08-23T10:56:02.199Z,16.47
2018-08-23T10:58:31.004Z,18.77
2018-08-23T11:00:59.688Z,21.33
2018-08-23T11:03:28.632Z,19.77
2018-08-23T11:05:57.312Z,16.37
2018-08-23T11:08:34.125Z,19.93
2018-08-23T11:11:08.344Z,20.80
2018-08-23T11:13:42.309Z,19.23
2018-08-23T11:16:16.301Z,21.33
2018-08-23T11:18:50.354Z,20.87
2018-08-23T11:21:19.243Z,19.93
2018-08-23T11:23:48.244Z,21.30
2018-08-23T11:26:20.154Z,20.00
2018-08-23T11:28:49.707Z,22.47
2018-08-23T11:31:24.597Z,20.30
2018-08-23T11:33:53.532Z,19.33
2018-08-23T11:36:22.201Z,18.33
2018-08-23T11:38:50.871Z,15.93
2018-08-23T11:41:20.103Z,19.43
2018-08-23T11:43:49.086Z,17.23
2018-08-23T11:46:19.000Z,17.23
2018-08-23T11:48:48.553Z,21.77
2018-08-23T11:51:17.967Z,18.73
2018-08-23T11:53:47.423Z,15.50
2018-08-23T11:56:16.092Z,19.17
2018-08-23T11:58:44.826Z,14.50
2018-08-23T12:01:15.046Z,15.03
2018-08-23T12:03:44.254Z,14.90
2018-08-23T12:06:14.244Z,18.73
2018-08-23T12:08:43.845Z,15.83
2018-08-23T12:11:12.634Z,14.47
2018-08-23T12:13:47.102Z,17.13
2018-08-23T12:16:15.947Z,13.93
2018-08-23T12:18:44.649Z,13.63
2018-08-23T12:21:13.445Z,14.33
2018-08-23T12:23:42.241Z,13.20
2018-08-23T12:26:11.019Z,15.10
2018-08-23T12:28:45.091Z,12.97
2018-08-23T12:31:13.781Z,12.93
2018-08-23T12:33:42.760Z,13.10
2018-08-23T12:36:11.689Z,12.50
2018-08-23T12:38:45.644Z,12.93
2018-08-23T12:41:19.656Z,12.50
2018-08-23T12:43:51.873Z,27.33
2018-08-23T12:46:20.779Z,14.87
2018-08-23T12:48:53.618Z,12.30
2018-08-23T12:51:22.582Z,24.07
2018-08-23T12:53:51.240Z,21.70
2018-08-23T12:56:20.013Z,17.40
2018-08-23T12:58:48.674Z,17.47
2018-08-23T13:01:18.049Z,17.20
2018-08-23T13:03:46.883Z,16.53
2018-08-23T13:06:15.726Z,13.07
2018-08-23T13:08:44.752Z,14.07
2018-08-23T13:11:14.054Z,22.10
2018-08-23T13:13:42.955Z,13.20
2018-08-23T13:16:11.784Z,12.77
2018-08-23T13:18:40.487Z,15.60
2018-08-23T13:21:09.855Z,14.57
2018-08-23T13:23:42.772Z,25.87
2018-08-23T13:26:12.408Z,15.93
2018-08-23T13:28:41.142Z,16.37
2018-08-23T13:31:10.158Z,28.27
2018-08-23T13:33:38.891Z,18.80
2018-08-23T13:36:07.802Z,25.40
2018-08-23T13:38:37.338Z,19.93
2018-08-23T13:41:06.071Z,16.43
2018-08-23T13:43:34.817Z,19.13
2018-08-23T13:46:03.571Z,16.97
2018-08-23T13:48:32.333Z,20.57
2018-08-23T13:51:01.065Z,16.00
2018-08-23T13:53:29.740Z,21.10
2018-08-23T13:55:58.399Z,15.50
2018-08-23T13:58:27.179Z,17.70
2018-08-23T14:00:55.853Z,14.03
2018-08-23T14:03:24.823Z,17.33
2018-08-23T14:05:53.538Z,16.03
2018-08-23T14:08:22.425Z,17.97
2018-08-23T14:10:51.217Z,18.80
2018-08-23T14:13:19.938Z,19.77
2018-08-23T14:15:54.059Z,18.30
2018-08-23T14:18:23.143Z,11.37
2018-08-23T14:20:51.961Z,11.57
2018-08-23T14:23:20.671Z,15.43
2018-08-23T14:25:49.456Z,10.40
2018-08-23T14:28:18.107Z,13.90
2018-08-23T14:30:46.912Z,13.73
2018-08-23T14:33:15.914Z,13.03
2018-08-23T14:35:44.794Z,13.67
2018-08-23T14:38:13.728Z,10.03
2018-08-23T14:40:42.796Z,12.07
2018-08-23T14:43:11.859Z,18.87
2018-08-23T14:45:40.811Z,9.97
2018-08-23T14:48:14.618Z,12.63
2018-08-23T14:50:43.313Z,9.67
2018-08-23T14:53:12.183Z,17.53
2018-08-23T14:55:46.227Z,10.80
2018-08-23T14:58:15.991Z,13.67
2018-08-23T15:00:44.669Z,11.33
2018-08-23T15:03:13.414Z,13.43
2018-08-23T15:05:42.040Z,16.20
2018-08-23T15:08:10.754Z,17.90
2018-08-23T15:10:39.510Z,12.40
2018-08-23T15:13:08.227Z,16.70
2018-08-23T15:15:42.128Z,15.20
2018-08-23T15:18:10.845Z,16.77
2018-08-23T15:20:39.679Z,15.73
2018-08-23T15:23:09.628Z,15.50
2018-08-23T15:25:38.579Z,15.00
2018-08-23T15:28:07.818Z,19.60
2018-08-23T15:30:36.691Z,15.40
2018-08-23T15:33:05.783Z,14.37
2018-08-23T15:35:34.317Z,15.57
2018-08-23T15:38:03.038Z,13.20
2018-08-23T15:40:31.849Z,13.27
2018-08-23T15:43:01.029Z,10.63
2018-08-23T15:45:30.354Z,13.80
2018-08-23T15:48:00.617Z,15.03
2018-08-23T15:50:32.480Z,14.20
2018-08-23T15:53:01.472Z,13.90
2018-08-23T15:55:34.663Z,12.20
2018-08-23T15:58:03.547Z,10.97
2018-08-23T16:00:39.201Z,12.50
2018-08-23T16:03:08.449Z,9.60
2018-08-23T16:05:38.289Z,10.87
2018-08-23T16:08:07.329Z,10.50
2018-08-23T16:10:36.078Z,14.80
2018-08-23T16:13:04.972Z,10.07
2018-08-23T16:15:34.198Z,14.07
2018-08-23T16:18:08.436Z,11.37
2018-08-23T16:20:42.630Z,12.80
2018-08-23T16:23:11.339Z,11.50
2018-08-23T16:25:41.834Z,12.23
2018-08-23T16:28:10.581Z,9.93
2018-08-23T16:30:41.254Z,12.73
2018-08-23T16:33:10.609Z,18.00
2018-08-23T16:35:39.389Z,11.03
2018-08-23T16:38:08.345Z,14.53
2018-08-23T16:40:37.163Z,13.90
2018-08-23T16:43:06.006Z,15.77
2018-08-23T16:45:35.421Z,18.37
2018-08-23T16:48:10.148Z,15.43
2018-08-23T16:50:39.199Z,13.03
2018-08-23T16:53:08.268Z,16.40
2018-08-23T16:55:37.309Z,14.10
2018-08-23T16:58:06.029Z,14.83
2018-08-23T17:00:34.942Z,13.43
2018-08-23T17:03:04.105Z,14.67
2018-08-23T17:05:33.277Z,19.60
2018-08-23T17:08:02.761Z,23.00
2018-08-23T17:10:31.402Z,14.63
2018-08-23T17:13:00.331Z,12.57
2018-08-23T17:15:34.453Z,18.90
2018-08-23T17:18:03.642Z,14.23
2018-08-23T17:20:32.418Z,14.27
2018-08-23T17:23:01.990Z,16.97
2018-08-23T17:25:30.654Z,15.23
2018-08-23T17:27:59.315Z,15.20
2018-08-23T17:30:28.068Z,13.30
2018-08-23T17:32:56.806Z,16.20
2018-08-23T17:35:25.731Z,17.83
2018-08-23T17:37:54.589Z,13.93
2018-08-23T17:40:23.269Z,16.33
2018-08-23T17:42:52.219Z,14.13
2018-08-23T17:45:20.870Z,17.30
2018-08-23T17:47:49.811Z,15.77
2018-08-23T17:50:18.545Z,16.57
2018-08-23T17:52:47.744Z,19.40
2018-08-23T17:55:16.398Z,18.53
2018-08-23T17:57:45.117Z,17.03
2018-08-23T18:00:14.007Z,15.27
2018-08-23T18:02:46.566Z,15.93
2018-08-23T18:05:15.258Z,18.23
2018-08-23T18:07:44.187Z,16.73
2018-08-23T18:10:12.939Z,15.10
2018-08-23T18:12:41.668Z,20.50
2018-08-23T18:15:10.671Z,16.40
2018-08-23T18:17:40.017Z,17.60
2018-08-23T18:20:09.505Z,19.03
2018-08-23T18:22:38.648Z,21.50
2018-08-23T18:25:07.398Z,15.50
2018-08-23T18:27:36.244Z,17.90
2018-08-23T18:30:05.664Z,17.27
2018-08-23T18:32:34.802Z,16.60
2018-08-23T18:35:03.460Z,17.50
2018-08-23T18:37:32.346Z,13.93
2018-08-23T18:40:01.221Z,18.87
2018-08-23T18:42:30.285Z,11.93
2018-08-23T18:44:58.996Z,12.37
2018-08-23T18:47:27.851Z,15.30
2018-08-23T18:49:56.693Z,10.30
2018-08-23T18:52:25.850Z,11.80
2018-08-23T18:54:54.563Z,10.00
2018-08-23T18:57:25.747Z,9.40
2018-08-23T18:59:54.572Z,10.60
2018-08-23T19:02:26.964Z,15.37
2018-08-23T19:04:55.742Z,13.70
2018-08-23T19:07:29.900Z,15.73
2018-08-23T19:09:58.808Z,18.07
2018-08-23T19:12:28.101Z,10.73
2018-08-23T19:14:57.347Z,17.90
2018-08-23T19:17:31.382Z,13.70
2018-08-23T19:20:00.222Z,10.70
2018-08-23T19:22:29.110Z,10.87
2018-08-23T19:24:59.630Z,10.60
2018-08-23T19:27:28.259Z,9.90
2018-08-23T19:29:57.249Z,12.57
2018-08-23T19:32:25.925Z,11.83
2018-08-23T19:34:54.755Z,12.33
2018-08-23T19:37:23.698Z,10.00
2018-08-23T19:39:53.025Z,9.37
2018-08-23T19:42:22.057Z,9.53
2018-08-23T19:44:56.738Z,12.00
2018-08-23T19:47:30.708Z,11.50
2018-08-23T19:50:00.652Z,12.73
2018-08-23T19:52:29.892Z,11.47
2018-08-23T19:54:59.402Z,10.63
2018-08-23T19:57:28.180Z,9.40
2018-08-23T19:59:56.938Z,14.93
2018-08-23T20:02:25.686Z,10.70
2018-08-23T20:04:54.363Z,9.50
2018-08-23T20:07:22.962Z,9.00
2018-08-23T20:09:51.750Z,19.70
2018-08-23T20:12:20.520Z,13.30
2018-08-23T20:14:49.298Z,11.13
2018-08-23T20:17:18.003Z,10.50
2018-08-23T20:19:46.833Z,7.67
2018-08-23T20:22:15.820Z,11.13
2018-08-23T20:24:44.431Z,13.73
2018-08-23T20:27:13.065Z,10.40
2018-08-23T20:29:41.730Z,8.10
2018-08-23T20:32:10.421Z,12.67
2018-08-23T20:34:38.957Z,8.53
2018-08-23T20:37:07.618Z,8.53
2018-08-23T20:39:36.522Z,9.40
2018-08-23T20:42:05.130Z,10.67
2018-08-23T20:44:33.873Z,10.87
2018-08-23T20:47:02.612Z,8.67
2018-08-23T20:49:31.206Z,10.10
2018-08-23T20:51:59.936Z,8.10
2018-08-23T20:54:28.698Z,9.60
2018-08-23T20:56:57.334Z,9.23
2018-08-23T20:59:26.144Z,10.33
2018-08-23T21:01:54.842Z,8.60
2018-08-23T21:04:24.334Z,10.77
2018-08-23T21:06:53.136Z,9.87
2018-08-23T21:09:21.834Z,10.10
2018-08-23T21:11:51.576Z,12.40
2018-08-23T21:14:20.226Z,9.70
2018-08-23T21:16:48.964Z,14.80
2018-08-23T21:19:17.623Z,9.37
2018-08-23T21:21:46.357Z,11.53
2018-08-23T21:24:14.986Z,15.90
2018-08-23T21:26:43.755Z,9.77
2018-08-23T21:29:12.477Z,9.80
2018-08-23T21:31:41.121Z,12.30
2018-08-23T21:34:09.805Z,9.20
2018-08-23T21:36:38.477Z,9.47
2018-08-23T21:39:08.982Z,12.10
2018-08-23T21:41:37.743Z,14.80
2018-08-23T21:44:06.441Z,9.67
2018-08-23T21:46:35.038Z,12.70
2018-08-23T21:49:03.773Z,11.80
2018-08-23T21:51:32.435Z,10.47
2018-08-23T21:54:01.206Z,9.00
2018-08-23T21:56:29.788Z,10.80
2018-08-23T21:58:58.454Z,10.03
2018-08-23T22:01:27.125Z,11.80
2018-08-23T22:03:55.776Z,11.33
2018-08-23T22:06:24.421Z,11.87
2018-08-23T22:08:53.094Z,14.53
2018-08-23T22:11:22.616Z,13.47
2018-08-23T22:13:51.238Z,11.33
2018-08-23T22:16:19.831Z,9.90
2018-08-23T22:18:48.608Z,12.53
2018-08-23T22:21:17.301Z,11.77
2018-08-23T22:23:45.942Z,11.57
2018-08-23T22:26:14.633Z,8.73
2018-08-23T22:28:44.060Z,7.90
2018-08-23T22:31:12.736Z,11.03
2018-08-23T22:33:43.281Z,8.10
2018-08-23T22:36:11.935Z,7.60
2018-08-23T22:38:40.798Z,11.87
2018-08-23T22:41:09.567Z,10.13
2018-08-23T22:43:38.415Z,10.50
2018-08-23T22:46:07.192Z,7.77
2018-08-23T22:48:35.887Z,9.57
2018-08-23T22:51:04.744Z,9.20
2018-08-23T22:53:33.355Z,10.27
2018-08-23T22:56:02.161Z,10.23
2018-08-23T22:58:30.748Z,9.90
2018-08-23T23:00:59.340Z,6.43
2018-08-23T23:03:33.339Z,8.60
2018-08-23T23:06:01.940Z,6.77
2018-08-23T23:08:30.568Z,6.87
2018-08-23T23:10:59.176Z,8.27
2018-08-23T23:13:28.018Z,10.40
2018-08-23T23:15:56.620Z,8.53
2018-08-23T23:18:25.334Z,7.70
2018-08-23T23:20:54.038Z,7.90
2018-08-23T23:23:22.659Z,9.03
2018-08-23T23:25:51.405Z,6.07
2018-08-23T23:28:19.989Z,6.50
2018-08-23T23:30:48.894Z,4.57
2018-08-23T23:33:17.549Z,7.67
2018-08-23T23:35:46.200Z,11.07
2018-08-23T23:38:14.862Z,5.57
2018-08-23T23:40:43.456Z,6.03
2018-08-23T23:43:12.042Z,7.70
2018-08-23T23:45:40.717Z,4.13
2018-08-23T23:48:09.543Z,8.83
2018-08-23T23:50:38.149Z,4.33
2018-08-23T23:53:06.864Z,2.37
2018-08-23T23:55:35.604Z,3.03
2018-08-23T23:58:04.271Z,2.10
